sensor_id;sensor_type;location;lat;lon;timestamp;temperature;humidity
66373;SHT30;53168;51.146;17.120;2023-07-13T00:02:13;21.48;69.61
66373;SHT30;53168;51.146;17.120;2023-07-13T00:04:47;21.50;69.69
66373;SHT30;53168;51.146;17.120;2023-07-13T00:07:17;21.50;69.72
66373;SHT30;53168;51.146;17.120;2023-07-13T00:09:49;21.50;69.82
66373;SHT30;53168;51.146;17.120;2023-07-13T00:12:36;21.51;69.90
66373;SHT30;53168;51.146;17.120;2023-07-13T00:15:27;21.49;69.93
66373;SHT30;53168;51.146;17.120;2023-07-13T00:18:00;21.43;69.92
66373;SHT30;53168;51.146;17.120;2023-07-13T00:20:45;21.36;69.99
66373;SHT30;53168;51.146;17.120;2023-07-13T00:23:15;21.32;70.01
66373;SHT30;53168;51.146;17.120;2023-07-13T00:25:46;21.28;70.01
66373;SHT30;53168;51.146;17.120;2023-07-13T00:28:19;21.24;70.09
66373;SHT30;53168;51.146;17.120;2023-07-13T00:30:49;21.20;70.12
66373;SHT30;53168;51.146;17.120;2023-07-13T00:33:19;21.15;70.17
66373;SHT30;53168;51.146;17.120;2023-07-13T00:35:50;21.11;70.31
66373;SHT30;53168;51.146;17.120;2023-07-13T00:38:19;21.09;70.35
66373;SHT30;53168;51.146;17.120;2023-07-13T00:40:49;21.06;70.40
66373;SHT30;53168;51.146;17.120;2023-07-13T00:43:21;21.04;70.49
66373;SHT30;53168;51.146;17.120;2023-07-13T00:46:25;21.00;70.51
66373;SHT30;53168;51.146;17.120;2023-07-13T00:49:01;20.96;70.64
66373;SHT30;53168;51.146;17.120;2023-07-13T00:52:03;20.93;70.77
66373;SHT30;53168;51.146;17.120;2023-07-13T01:03:08;20.95;71.00
66373;SHT30;53168;51.146;17.120;2023-07-13T01:05:40;20.97;70.90
66373;SHT30;53168;51.146;17.120;2023-07-13T01:08:12;20.97;71.20
66373;SHT30;53168;51.146;17.120;2023-07-13T01:11:37;20.77;71.57
66373;SHT30;53168;51.146;17.120;2023-07-13T01:14:12;20.50;72.01
66373;SHT30;53168;51.146;17.120;2023-07-13T01:16:46;20.35;72.04
66373;SHT30;53168;51.146;17.120;2023-07-13T01:19:33;20.28;72.13
66373;SHT30;53168;51.146;17.120;2023-07-13T01:22:10;20.22;72.23
66373;SHT30;53168;51.146;17.120;2023-07-13T01:24:45;20.17;72.33
66373;SHT30;53168;51.146;17.120;2023-07-13T01:27:20;20.13;72.47
66373;SHT30;53168;51.146;17.120;2023-07-13T01:29:54;20.11;72.50
66373;SHT30;53168;51.146;17.120;2023-07-13T01:32:30;20.07;72.58
66373;SHT30;53168;51.146;17.120;2023-07-13T01:35:00;20.04;72.77
66373;SHT30;53168;51.146;17.120;2023-07-13T01:37:31;20.00;73.04
66373;SHT30;53168;51.146;17.120;2023-07-13T01:40:01;20.00;73.12
66373;SHT30;53168;51.146;17.120;2023-07-13T01:42:32;20.01;73.23
66373;SHT30;53168;51.146;17.120;2023-07-13T01:45:04;20.03;73.36
66373;SHT30;53168;51.146;17.120;2023-07-13T01:47:35;20.02;73.38
66373;SHT30;53168;51.146;17.120;2023-07-13T01:50:06;20.02;73.47
66373;SHT30;53168;51.146;17.120;2023-07-13T01:52:37;20.01;73.68
66373;SHT30;53168;51.146;17.120;2023-07-13T01:55:08;19.98;73.68
66373;SHT30;53168;51.146;17.120;2023-07-13T01:57:38;19.95;73.77
66373;SHT30;53168;51.146;17.120;2023-07-13T02:02:54;19.87;73.95
66373;SHT30;53168;51.146;17.120;2023-07-13T02:05:25;19.83;73.99
66373;SHT30;53168;51.146;17.120;2023-07-13T02:07:56;19.83;74.16
66373;SHT30;53168;51.146;17.120;2023-07-13T02:10:26;19.82;74.20
66373;SHT30;53168;51.146;17.120;2023-07-13T02:12:56;19.80;74.20
66373;SHT30;53168;51.146;17.120;2023-07-13T02:15:26;19.76;74.20
66373;SHT30;53168;51.146;17.120;2023-07-13T02:17:55;19.72;74.40
66373;SHT30;53168;51.146;17.120;2023-07-13T02:20:26;19.69;74.59
66373;SHT30;53168;51.146;17.120;2023-07-13T02:22:56;19.67;74.54
66373;SHT30;53168;51.146;17.120;2023-07-13T02:25:26;19.63;74.51
66373;SHT30;53168;51.146;17.120;2023-07-13T02:27:56;19.55;74.64
66373;SHT30;53168;51.146;17.120;2023-07-13T02:30:26;19.50;74.77
66373;SHT30;53168;51.146;17.120;2023-07-13T02:32:58;19.43;74.82
66373;SHT30;53168;51.146;17.120;2023-07-13T02:35:28;19.39;74.87
66373;SHT30;53168;51.146;17.120;2023-07-13T02:38:00;19.36;74.95
66373;SHT30;53168;51.146;17.120;2023-07-13T02:40:33;19.34;75.04
66373;SHT30;53168;51.146;17.120;2023-07-13T02:43:04;19.29;75.06
66373;SHT30;53168;51.146;17.120;2023-07-13T02:45:34;19.25;75.11
66373;SHT30;53168;51.146;17.120;2023-07-13T02:48:05;19.21;75.23
66373;SHT30;53168;51.146;17.120;2023-07-13T02:50:36;19.21;75.28
66373;SHT30;53168;51.146;17.120;2023-07-13T02:53:06;19.20;75.30
66373;SHT30;53168;51.146;17.120;2023-07-13T02:55:36;19.18;75.36
66373;SHT30;53168;51.146;17.120;2023-07-13T02:58:06;19.14;75.45
66373;SHT30;53168;51.146;17.120;2023-07-13T03:00:38;19.11;75.59
66373;SHT30;53168;51.146;17.120;2023-07-13T03:03:09;19.12;75.74
66373;SHT30;53168;51.146;17.120;2023-07-13T03:05:43;19.12;75.78
66373;SHT30;53168;51.146;17.120;2023-07-13T03:08:18;19.17;75.70
66373;SHT30;53168;51.146;17.120;2023-07-13T03:10:48;19.22;75.60
66373;SHT30;53168;51.146;17.120;2023-07-13T03:13:27;19.31;75.58
66373;SHT30;53168;51.146;17.120;2023-07-13T03:15:58;19.40;75.53
66373;SHT30;53168;51.146;17.120;2023-07-13T03:18:29;19.47;75.42
66373;SHT30;53168;51.146;17.120;2023-07-13T03:21:02;19.57;75.36
66373;SHT30;53168;51.146;17.120;2023-07-13T03:23:32;19.65;75.24
66373;SHT30;53168;51.146;17.120;2023-07-13T03:26:04;19.69;75.21
66373;SHT30;53168;51.146;17.120;2023-07-13T03:28:36;19.73;75.16
66373;SHT30;53168;51.146;17.120;2023-07-13T03:31:09;19.75;75.11
66373;SHT30;53168;51.146;17.120;2023-07-13T03:33:42;19.78;75.03
66373;SHT30;53168;51.146;17.120;2023-07-13T03:36:21;19.83;74.95
66373;SHT30;53168;51.146;17.120;2023-07-13T03:38:58;19.88;74.85
66373;SHT30;53168;51.146;17.120;2023-07-13T03:41:38;19.91;74.68
66373;SHT30;53168;51.146;17.120;2023-07-13T03:44:08;19.89;74.61
66373;SHT30;53168;51.146;17.120;2023-07-13T03:46:37;19.89;74.52
66373;SHT30;53168;51.146;17.120;2023-07-13T03:49:07;19.93;74.38
66373;SHT30;53168;51.146;17.120;2023-07-13T03:51:38;19.97;74.26
66373;SHT30;53168;51.146;17.120;2023-07-13T03:54:09;20.01;74.15
66373;SHT30;53168;51.146;17.120;2023-07-13T03:56:38;20.09;74.00
66373;SHT30;53168;51.146;17.120;2023-07-13T03:59:09;20.16;73.66
66373;SHT30;53168;51.146;17.120;2023-07-13T04:01:38;20.24;73.41
66373;SHT30;53168;51.146;17.120;2023-07-13T04:04:08;20.32;73.17
66373;SHT30;53168;51.146;17.120;2023-07-13T04:06:38;20.40;73.06
66373;SHT30;53168;51.146;17.120;2023-07-13T04:09:09;20.48;72.96
66373;SHT30;53168;51.146;17.120;2023-07-13T04:11:39;20.54;72.57
66373;SHT30;53168;51.146;17.120;2023-07-13T04:14:09;20.56;72.47
66373;SHT30;53168;51.146;17.120;2023-07-13T04:16:39;20.58;72.18
66373;SHT30;53168;51.146;17.120;2023-07-13T04:19:09;20.59;71.68
66373;SHT30;53168;51.146;17.120;2023-07-13T04:21:43;20.61;71.25
66373;SHT30;53168;51.146;17.120;2023-07-13T04:24:15;20.65;70.78
66373;SHT30;53168;51.146;17.120;2023-07-13T04:27:04;20.67;70.74
66373;SHT30;53168;51.146;17.120;2023-07-13T04:29:35;20.66;70.67
66373;SHT30;53168;51.146;17.120;2023-07-13T04:32:20;20.59;70.63
66373;SHT30;53168;51.146;17.120;2023-07-13T04:34:51;20.46;70.91
66373;SHT30;53168;51.146;17.120;2023-07-13T04:37:25;20.29;70.77
66373;SHT30;53168;51.146;17.120;2023-07-13T04:39:55;20.15;69.80
66373;SHT30;53168;51.146;17.120;2023-07-13T04:42:26;20.04;69.92
66373;SHT30;53168;51.146;17.120;2023-07-13T04:44:56;19.91;69.86
66373;SHT30;53168;51.146;17.120;2023-07-13T04:47:25;19.71;70.04
66373;SHT30;53168;51.146;17.120;2023-07-13T04:49:58;19.32;70.86
66373;SHT30;53168;51.146;17.120;2023-07-13T04:52:28;18.87;71.85
66373;SHT30;53168;51.146;17.120;2023-07-13T04:54:58;18.42;72.81
66373;SHT30;53168;51.146;17.120;2023-07-13T04:57:28;17.94;73.70
66373;SHT30;53168;51.146;17.120;2023-07-13T04:59:57;17.54;74.41
66373;SHT30;53168;51.146;17.120;2023-07-13T05:02:29;17.22;75.01
66373;SHT30;53168;51.146;17.120;2023-07-13T05:05:00;16.98;76.10
66373;SHT30;53168;51.146;17.120;2023-07-13T05:07:32;16.76;76.42
66373;SHT30;53168;51.146;17.120;2023-07-13T05:10:01;16.62;77.15
66373;SHT30;53168;51.146;17.120;2023-07-13T05:12:32;16.51;77.22
66373;SHT30;53168;51.146;17.120;2023-07-13T05:15:03;16.43;77.36
66373;SHT30;53168;51.146;17.120;2023-07-13T05:17:34;16.39;77.36
66373;SHT30;53168;51.146;17.120;2023-07-13T05:20:10;16.36;77.64
66373;SHT30;53168;51.146;17.120;2023-07-13T05:22:44;16.35;77.73
66373;SHT30;53168;51.146;17.120;2023-07-13T05:25:17;16.37;77.71
66373;SHT30;53168;51.146;17.120;2023-07-13T05:27:47;16.39;77.73
66373;SHT30;53168;51.146;17.120;2023-07-13T05:30:17;16.42;77.79
66373;SHT30;53168;51.146;17.120;2023-07-13T05:32:47;16.42;77.75
66373;SHT30;53168;51.146;17.120;2023-07-13T05:35:17;16.44;77.74
66373;SHT30;53168;51.146;17.120;2023-07-13T05:37:47;16.47;77.81
66373;SHT30;53168;51.146;17.120;2023-07-13T05:40:17;16.52;77.97
66373;SHT30;53168;51.146;17.120;2023-07-13T05:42:47;16.54;78.04
66373;SHT30;53168;51.146;17.120;2023-07-13T05:45:16;16.57;78.12
66373;SHT30;53168;51.146;17.120;2023-07-13T05:47:46;16.59;78.22
66373;SHT30;53168;51.146;17.120;2023-07-13T05:50:17;16.61;78.26
66373;SHT30;53168;51.146;17.120;2023-07-13T05:52:46;16.64;78.20
66373;SHT30;53168;51.146;17.120;2023-07-13T05:55:19;16.67;78.15
66373;SHT30;53168;51.146;17.120;2023-07-13T05:57:50;16.74;78.16
66373;SHT30;53168;51.146;17.120;2023-07-13T06:00:34;16.83;77.99
66373;SHT30;53168;51.146;17.120;2023-07-13T06:03:04;16.92;77.93
66373;SHT30;53168;51.146;17.120;2023-07-13T06:05:38;17.01;77.91
66373;SHT30;53168;51.146;17.120;2023-07-13T06:08:08;17.08;77.89
66373;SHT30;53168;51.146;17.120;2023-07-13T06:10:42;17.12;77.90
66373;SHT30;53168;51.146;17.120;2023-07-13T06:13:19;17.18;77.91
66373;SHT30;53168;51.146;17.120;2023-07-13T06:15:49;17.27;77.85
66373;SHT30;53168;51.146;17.120;2023-07-13T06:18:46;17.39;77.81
66373;SHT30;53168;51.146;17.120;2023-07-13T06:21:19;17.55;77.63
66373;SHT30;53168;51.146;17.120;2023-07-13T06:23:56;17.69;77.52
66373;SHT30;53168;51.146;17.120;2023-07-13T06:26:29;17.79;77.48
66373;SHT30;53168;51.146;17.120;2023-07-13T06:29:00;17.94;77.31
66373;SHT30;53168;51.146;17.120;2023-07-13T06:31:30;18.14;77.17
66373;SHT30;53168;51.146;17.120;2023-07-13T06:34:00;18.36;77.15
66373;SHT30;53168;51.146;17.120;2023-07-13T06:36:30;18.55;77.03
66373;SHT30;53168;51.146;17.120;2023-07-13T06:39:00;18.71;76.62
66373;SHT30;53168;51.146;17.120;2023-07-13T06:41:30;18.80;76.44
66373;SHT30;53168;51.146;17.120;2023-07-13T06:44:00;18.83;76.15
66373;SHT30;53168;51.146;17.120;2023-07-13T06:46:30;18.85;75.97
66373;SHT30;53168;51.146;17.120;2023-07-13T06:49:00;18.85;75.84
66373;SHT30;53168;51.146;17.120;2023-07-13T06:51:30;18.82;75.72
66373;SHT30;53168;51.146;17.120;2023-07-13T06:54:00;18.72;75.81
66373;SHT30;53168;51.146;17.120;2023-07-13T06:56:30;18.59;75.71
66373;SHT30;53168;51.146;17.120;2023-07-13T06:59:00;18.41;75.91
66373;SHT30;53168;51.146;17.120;2023-07-13T07:01:29;18.27;76.30
66373;SHT30;53168;51.146;17.120;2023-07-13T07:03:59;18.17;76.68
66373;SHT30;53168;51.146;17.120;2023-07-13T07:06:29;18.07;76.92
66373;SHT30;53168;51.146;17.120;2023-07-13T07:08:59;17.96;77.10
66373;SHT30;53168;51.146;17.120;2023-07-13T07:11:30;17.87;77.37
66373;SHT30;53168;51.146;17.120;2023-07-13T07:13:59;17.78;77.61
66373;SHT30;53168;51.146;17.120;2023-07-13T07:16:29;17.72;77.88
66373;SHT30;53168;51.146;17.120;2023-07-13T07:18:59;17.72;78.09
66373;SHT30;53168;51.146;17.120;2023-07-13T07:21:29;17.69;78.15
66373;SHT30;53168;51.146;17.120;2023-07-13T07:24:00;17.64;78.25
66373;SHT30;53168;51.146;17.120;2023-07-13T07:26:32;17.59;78.40
66373;SHT30;53168;51.146;17.120;2023-07-13T07:29:22;17.53;78.62
66373;SHT30;53168;51.146;17.120;2023-07-13T07:31:57;17.53;78.58
66373;SHT30;53168;51.146;17.120;2023-07-13T07:34:31;17.58;78.59
66373;SHT30;53168;51.146;17.120;2023-07-13T07:37:02;17.63;78.52
66373;SHT30;53168;51.146;17.120;2023-07-13T07:39:35;17.69;78.52
66373;SHT30;53168;51.146;17.120;2023-07-13T07:42:12;17.76;78.54
66373;SHT30;53168;51.146;17.120;2023-07-13T07:44:42;17.83;78.65
66373;SHT30;53168;51.146;17.120;2023-07-13T07:47:16;17.86;78.68
66373;SHT30;53168;51.146;17.120;2023-07-13T07:49:48;17.90;78.74
66373;SHT30;53168;51.146;17.120;2023-07-13T07:52:24;17.94;78.83
66373;SHT30;53168;51.146;17.120;2023-07-13T07:54:56;17.98;78.92
66373;SHT30;53168;51.146;17.120;2023-07-13T07:57:50;18.04;78.95
66373;SHT30;53168;51.146;17.120;2023-07-13T08:00:40;18.14;78.79
66373;SHT30;53168;51.146;17.120;2023-07-13T08:03:13;18.26;78.67
66373;SHT30;53168;51.146;17.120;2023-07-13T08:05:46;18.41;78.56
66373;SHT30;53168;51.146;17.120;2023-07-13T08:09:13;18.62;78.39
66373;SHT30;53168;51.146;17.120;2023-07-13T08:12:08;18.90;77.93
66373;SHT30;53168;51.146;17.120;2023-07-13T08:14:55;19.15;77.40
66373;SHT30;53168;51.146;17.120;2023-07-13T08:17:27;19.37;77.01
66373;SHT30;53168;51.146;17.120;2023-07-13T08:20:06;19.61;77.08
66373;SHT30;53168;51.146;17.120;2023-07-13T08:22:42;19.85;77.17
66373;SHT30;53168;51.146;17.120;2023-07-13T08:25:27;20.00;76.60
66373;SHT30;53168;51.146;17.120;2023-07-13T08:28:02;20.11;76.07
66373;SHT30;53168;51.146;17.120;2023-07-13T08:30:45;20.10;75.26
66373;SHT30;53168;51.146;17.120;2023-07-13T08:33:19;20.08;75.60
66373;SHT30;53168;51.146;17.120;2023-07-13T08:35:58;20.07;75.41
66373;SHT30;53168;51.146;17.120;2023-07-13T08:38:32;20.08;75.58
66373;SHT30;53168;51.146;17.120;2023-07-13T08:41:14;20.08;75.28
66373;SHT30;53168;51.146;17.120;2023-07-13T08:43:58;20.10;75.43
66373;SHT30;53168;51.146;17.120;2023-07-13T08:46:37;20.18;75.27
66373;SHT30;53168;51.146;17.120;2023-07-13T08:49:15;20.31;75.13
66373;SHT30;53168;51.146;17.120;2023-07-13T08:51:57;20.47;75.01
66373;SHT30;53168;51.146;17.120;2023-07-13T08:54:36;20.59;74.77
66373;SHT30;53168;51.146;17.120;2023-07-13T08:57:14;20.65;74.61
66373;SHT30;53168;51.146;17.120;2023-07-13T08:59:48;20.67;74.41
66373;SHT30;53168;51.146;17.120;2023-07-13T09:02:28;20.73;74.29
66373;SHT30;53168;51.146;17.120;2023-07-13T09:05:14;20.84;73.93
66373;SHT30;53168;51.146;17.120;2023-07-13T09:08:04;21.00;73.99
66373;SHT30;53168;51.146;17.120;2023-07-13T09:10:49;21.22;73.68
66373;SHT30;53168;51.146;17.120;2023-07-13T09:13:35;21.41;73.14
66373;SHT30;53168;51.146;17.120;2023-07-13T09:16:14;21.63;73.00
66373;SHT30;53168;51.146;17.120;2023-07-13T09:18:49;21.88;72.60
66373;SHT30;53168;51.146;17.120;2023-07-13T09:21:27;22.12;71.94
66373;SHT30;53168;51.146;17.120;2023-07-13T09:24:21;22.31;71.41
66373;SHT30;53168;51.146;17.120;2023-07-13T09:27:11;22.44;71.14
66373;SHT30;53168;51.146;17.120;2023-07-13T09:29:50;22.64;70.85
66373;SHT30;53168;51.146;17.120;2023-07-13T09:32:27;22.68;69.81
66373;SHT30;53168;51.146;17.120;2023-07-13T09:34:58;22.71;69.93
66373;SHT30;53168;51.146;17.120;2023-07-13T09:37:32;22.75;70.00
66373;SHT30;53168;51.146;17.120;2023-07-13T09:40:03;22.76;69.59
66373;SHT30;53168;51.146;17.120;2023-07-13T09:42:42;22.66;69.75
66373;SHT30;53168;51.146;17.120;2023-07-13T09:45:27;22.72;70.00
66373;SHT30;53168;51.146;17.120;2023-07-13T09:48:06;22.86;70.38
66373;SHT30;53168;51.146;17.120;2023-07-13T09:50:40;22.97;69.97
66373;SHT30;53168;51.146;17.120;2023-07-13T09:53:15;23.05;69.34
66373;SHT30;53168;51.146;17.120;2023-07-13T09:55:47;23.08;69.06
66373;SHT30;53168;51.146;17.120;2023-07-13T09:58:26;23.18;68.85
66373;SHT30;53168;51.146;17.120;2023-07-13T10:01:02;23.23;68.73
66373;SHT30;53168;51.146;17.120;2023-07-13T10:03:38;23.32;68.65
66373;SHT30;53168;51.146;17.120;2023-07-13T10:06:21;23.40;68.18
66373;SHT30;53168;51.146;17.120;2023-07-13T10:09:00;23.50;67.60
66373;SHT30;53168;51.146;17.120;2023-07-13T10:11:30;23.57;67.22
66373;SHT30;53168;51.146;17.120;2023-07-13T10:14:14;23.72;67.19
66373;SHT30;53168;51.146;17.120;2023-07-13T10:19:48;23.97;65.79
66373;SHT30;53168;51.146;17.120;2023-07-13T10:22:27;24.13;65.78
66373;SHT30;53168;51.146;17.120;2023-07-13T10:25:03;24.45;64.64
66373;SHT30;53168;51.146;17.120;2023-07-13T10:27:47;24.41;64.51
66373;SHT30;53168;51.146;17.120;2023-07-13T10:30:25;24.43;64.59
66373;SHT30;53168;51.146;17.120;2023-07-13T10:33:01;24.65;64.12
66373;SHT30;53168;51.146;17.120;2023-07-13T10:35:32;24.93;62.72
66373;SHT30;53168;51.146;17.120;2023-07-13T10:38:13;25.17;62.15
66373;SHT30;53168;51.146;17.120;2023-07-13T10:40:55;25.24;62.18
66373;SHT30;53168;51.146;17.120;2023-07-13T10:43:33;25.34;61.99
66373;SHT30;53168;51.146;17.120;2023-07-13T10:46:08;25.49;61.67
66373;SHT30;53168;51.146;17.120;2023-07-13T10:48:46;25.60;60.14
66373;SHT30;53168;51.146;17.120;2023-07-13T10:51:20;25.51;59.70
66373;SHT30;53168;51.146;17.120;2023-07-13T10:54:14;25.51;59.53
66373;SHT30;53168;51.146;17.120;2023-07-13T10:56:51;25.62;59.17
66373;SHT30;53168;51.146;17.120;2023-07-13T10:59:37;25.78;58.78
66373;SHT30;53168;51.146;17.120;2023-07-13T11:05:28;26.10;58.54
66373;SHT30;53168;51.146;17.120;2023-07-13T11:08:13;26.53;58.34
66373;SHT30;53168;51.146;17.120;2023-07-13T11:10:55;27.04;57.94
66373;SHT30;53168;51.146;17.120;2023-07-13T11:13:57;27.22;57.12
66373;SHT30;53168;51.146;17.120;2023-07-13T11:16:44;27.00;56.52
66373;SHT30;53168;51.146;17.120;2023-07-13T11:19:37;26.81;56.07
66373;SHT30;53168;51.146;17.120;2023-07-13T11:22:23;26.78;56.20
66373;SHT30;53168;51.146;17.120;2023-07-13T11:25:02;26.77;55.35
66373;SHT30;53168;51.146;17.120;2023-07-13T11:28:07;26.78;54.71
66373;SHT30;53168;51.146;17.120;2023-07-13T11:30:59;26.59;55.16
66373;SHT30;53168;51.146;17.120;2023-07-13T11:33:57;26.44;54.70
66373;SHT30;53168;51.146;17.120;2023-07-13T11:36:36;26.28;54.37
66373;SHT30;53168;51.146;17.120;2023-07-13T11:39:27;26.27;54.54
66373;SHT30;53168;51.146;17.120;2023-07-13T11:42:06;26.28;54.82
66373;SHT30;53168;51.146;17.120;2023-07-13T11:44:46;26.23;54.53
66373;SHT30;53168;51.146;17.120;2023-07-13T11:47:40;26.20;54.91
66373;SHT30;53168;51.146;17.120;2023-07-13T11:50:25;26.36;54.91
66373;SHT30;53168;51.146;17.120;2023-07-13T11:53:23;26.47;54.78
66373;SHT30;53168;51.146;17.120;2023-07-13T11:56:22;26.54;54.58
66373;SHT30;53168;51.146;17.120;2023-07-13T11:59:06;26.50;54.86
66373;SHT30;53168;51.146;17.120;2023-07-13T12:01:45;26.37;54.81
66373;SHT30;53168;51.146;17.120;2023-07-13T12:04:26;26.33;55.16
66373;SHT30;53168;51.146;17.120;2023-07-13T12:07:07;26.29;54.70
66373;SHT30;53168;51.146;17.120;2023-07-13T12:09:54;26.14;54.87
66373;SHT30;53168;51.146;17.120;2023-07-13T12:12:30;26.18;54.81
66373;SHT30;53168;51.146;17.120;2023-07-13T12:15:02;26.23;54.66
66373;SHT30;53168;51.146;17.120;2023-07-13T12:18:00;26.40;54.42
66373;SHT30;53168;51.146;17.120;2023-07-13T12:20:55;26.54;53.78
66373;SHT30;53168;51.146;17.120;2023-07-13T12:23:36;26.57;53.58
66373;SHT30;53168;51.146;17.120;2023-07-13T12:27:28;26.63;53.26
66373;SHT30;53168;51.146;17.120;2023-07-13T12:30:29;26.70;52.74
66373;SHT30;53168;51.146;17.120;2023-07-13T12:36:40;27.56;50.99
66373;SHT30;53168;51.146;17.120;2023-07-13T12:39:53;28.25;50.50
66373;SHT30;53168;51.146;17.120;2023-07-13T12:42:40;28.76;49.84
66373;SHT30;53168;51.146;17.120;2023-07-13T12:45:38;29.45;48.45
66373;SHT30;53168;51.146;17.120;2023-07-13T12:48:25;29.57;48.06
66373;SHT30;53168;51.146;17.120;2023-07-13T12:51:16;29.18;47.48
66373;SHT30;53168;51.146;17.120;2023-07-13T12:57:03;28.31;47.28
66373;SHT30;53168;51.146;17.120;2023-07-13T12:59:53;28.17;47.30
66373;SHT30;53168;51.146;17.120;2023-07-13T13:02:30;28.51;47.27
66373;SHT30;53168;51.146;17.120;2023-07-13T13:05:15;29.15;46.74
66373;SHT30;53168;51.146;17.120;2023-07-13T13:07:49;29.56;46.27
66373;SHT30;53168;51.146;17.120;2023-07-13T13:10:31;30.06;46.56
66373;SHT30;53168;51.146;17.120;2023-07-13T13:13:02;30.57;46.20
66373;SHT30;53168;51.146;17.120;2023-07-13T13:15:32;31.13;44.63
66373;SHT30;53168;51.146;17.120;2023-07-13T13:18:18;31.31;44.21
66373;SHT30;53168;51.146;17.120;2023-07-13T13:21:04;31.23;44.06
66373;SHT30;53168;51.146;17.120;2023-07-13T13:23:53;31.07;44.39
66373;SHT30;53168;51.146;17.120;2023-07-13T13:26:33;31.09;44.44
66373;SHT30;53168;51.146;17.120;2023-07-13T13:29:13;31.45;42.64
66373;SHT30;53168;51.146;17.120;2023-07-13T13:31:58;31.76;42.66
66373;SHT30;53168;51.146;17.120;2023-07-13T13:34:40;32.11;42.51
66373;SHT30;53168;51.146;17.120;2023-07-13T13:37:19;32.45;41.85
66373;SHT30;53168;51.146;17.120;2023-07-13T13:40:33;32.52;41.29
66373;SHT30;53168;51.146;17.120;2023-07-13T13:53:54;34.02;38.60
66373;SHT30;53168;51.146;17.120;2023-07-13T13:56:43;34.23;38.47
66373;SHT30;53168;51.146;17.120;2023-07-13T13:59:48;34.32;37.10
66373;SHT30;53168;51.146;17.120;2023-07-13T14:02:31;34.09;37.07
66373;SHT30;53168;51.146;17.120;2023-07-13T14:05:14;34.10;37.51
66373;SHT30;53168;51.146;17.120;2023-07-13T14:12:08;34.80;37.30
66373;SHT30;53168;51.146;17.120;2023-07-13T14:17:44;35.25;36.04
66373;SHT30;53168;51.146;17.120;2023-07-13T14:21:08;35.28;35.19
66373;SHT30;53168;51.146;17.120;2023-07-13T14:25:08;35.60;34.52
66373;SHT30;53168;51.146;17.120;2023-07-13T14:28:22;36.10;33.92
66373;SHT30;53168;51.146;17.120;2023-07-13T14:32:23;36.43;33.74
66373;SHT30;53168;51.146;17.120;2023-07-13T14:36:13;36.57;32.88
66373;SHT30;53168;51.146;17.120;2023-07-13T14:40:48;36.26;32.24
66373;SHT30;53168;51.146;17.120;2023-07-13T14:43:25;36.00;31.66
66373;SHT30;53168;51.146;17.120;2023-07-13T14:46:00;35.30;31.62
66373;SHT30;53168;51.146;17.120;2023-07-13T14:48:38;34.37;31.65
66373;SHT30;53168;51.146;17.120;2023-07-13T14:51:12;33.58;31.80
66373;SHT30;53168;51.146;17.120;2023-07-13T14:53:46;32.83;31.75
66373;SHT30;53168;51.146;17.120;2023-07-13T14:56:21;32.12;32.45
66373;SHT30;53168;51.146;17.120;2023-07-13T14:58:57;31.61;32.91
66373;SHT30;53168;51.146;17.120;2023-07-13T15:01:31;31.05;32.63
66373;SHT30;53168;51.146;17.120;2023-07-13T15:04:09;30.41;32.96
66373;SHT30;53168;51.146;17.120;2023-07-13T15:06:59;29.96;33.61
66373;SHT30;53168;51.146;17.120;2023-07-13T15:09:39;29.58;34.12
66373;SHT30;53168;51.146;17.120;2023-07-13T15:12:18;29.18;34.74
66373;SHT30;53168;51.146;17.120;2023-07-13T15:15:07;28.89;35.47
66373;SHT30;53168;51.146;17.120;2023-07-13T15:18:14;28.73;35.89
66373;SHT30;53168;51.146;17.120;2023-07-13T15:21:20;29.53;35.77
66373;SHT30;53168;51.146;17.120;2023-07-13T15:24:02;30.99;34.67
66373;SHT30;53168;51.146;17.120;2023-07-13T15:27:18;32.32;33.61
66373;SHT30;53168;51.146;17.120;2023-07-13T15:35:25;34.47;31.99
66373;SHT30;53168;51.146;17.120;2023-07-13T15:45:31;34.94;32.51
66373;SHT30;53168;51.146;17.120;2023-07-13T15:48:58;35.07;32.28
66373;SHT30;53168;51.146;17.120;2023-07-13T15:51:59;35.24;32.34
66373;SHT30;53168;51.146;17.120;2023-07-13T15:55:39;35.54;31.93
66373;SHT30;53168;51.146;17.120;2023-07-13T16:01:57;35.60;31.44
66373;SHT30;53168;51.146;17.120;2023-07-13T16:04:36;35.52;31.30
66373;SHT30;53168;51.146;17.120;2023-07-13T16:07:20;35.65;31.14
66373;SHT30;53168;51.146;17.120;2023-07-13T16:09:56;35.60;30.81
66373;SHT30;53168;51.146;17.120;2023-07-13T16:12:49;35.46;30.71
66373;SHT30;53168;51.146;17.120;2023-07-13T16:16:37;35.25;30.84
66373;SHT30;53168;51.146;17.120;2023-07-13T16:19:13;35.13;30.89
66373;SHT30;53168;51.146;17.120;2023-07-13T16:25:35;33.00;32.42
66373;SHT30;53168;51.146;17.120;2023-07-13T16:29:30;31.52;34.09
66373;SHT30;53168;51.146;17.120;2023-07-13T16:32:36;30.64;34.91
66373;SHT30;53168;51.146;17.120;2023-07-13T16:35:11;30.02;35.50
66373;SHT30;53168;51.146;17.120;2023-07-13T16:37:57;29.53;36.11
66373;SHT30;53168;51.146;17.120;2023-07-13T16:40:46;29.42;36.40
66373;SHT30;53168;51.146;17.120;2023-07-13T16:43:23;29.63;36.42
66373;SHT30;53168;51.146;17.120;2023-07-13T16:46:15;29.45;36.84
66373;SHT30;53168;51.146;17.120;2023-07-13T16:48:56;29.63;37.08
66373;SHT30;53168;51.146;17.120;2023-07-13T16:51:49;29.65;37.01
66373;SHT30;53168;51.146;17.120;2023-07-13T16:54:36;29.60;37.15
66373;SHT30;53168;51.146;17.120;2023-07-13T16:57:45;30.27;36.91
66373;SHT30;53168;51.146;17.120;2023-07-13T17:00:30;30.39;37.00
66373;SHT30;53168;51.146;17.120;2023-07-13T17:03:25;29.79;37.85
66373;SHT30;53168;51.146;17.120;2023-07-13T17:06:29;29.14;39.27
66373;SHT30;53168;51.146;17.120;2023-07-13T17:09:07;28.52;40.34
66373;SHT30;53168;51.146;17.120;2023-07-13T17:11:45;28.54;40.65
66373;SHT30;53168;51.146;17.120;2023-07-13T17:14:22;28.98;40.49
66373;SHT30;53168;51.146;17.120;2023-07-13T17:17:01;29.31;40.47
66373;SHT30;53168;51.146;17.120;2023-07-13T17:19:37;29.50;40.40
66373;SHT30;53168;51.146;17.120;2023-07-13T17:22:13;29.31;40.76
66373;SHT30;53168;51.146;17.120;2023-07-13T17:24:49;29.13;41.08
66373;SHT30;53168;51.146;17.120;2023-07-13T17:27:26;28.69;41.54
66373;SHT30;53168;51.146;17.120;2023-07-13T17:30:00;28.21;42.19
66373;SHT30;53168;51.146;17.120;2023-07-13T17:32:45;27.90;42.63
66373;SHT30;53168;51.146;17.120;2023-07-13T17:35:25;27.67;43.12
66373;SHT30;53168;51.146;17.120;2023-07-13T17:38:02;27.33;43.48